sensor_id;sensor_type;location;lat;lon;timestamp;pressure;altitude;pressure_sealevel;temperature
45701;BMP280;36277;32.852;-116.998;2022-10-16T00:01:25;99723.03;;;26.59
45701;BMP280;36277;32.852;-116.998;2022-10-16T00:03:52;99720.31;;;26.52
45701;BMP280;36277;32.852;-116.998;2022-10-16T00:06:20;99718.53;;;26.64
45701;BMP280;36277;32.852;-116.998;2022-10-16T00:08:47;99716.63;;;26.65
45701;BMP280;36277;32.852;-116.998;2022-10-16T00:11:17;99719.78;;;26.68
45701;BMP280;36277;32.852;-116.998;2022-10-16T00:13:45;99724.50;;;26.68
45701;BMP280;36277;32.852;-116.998;2022-10-16T00:16:13;99726.38;;;26.74
45701;BMP280;36277;32.852;-116.998;2022-10-16T00:18:40;99727.63;;;26.78
45701;BMP280;36277;32.852;-116.998;2022-10-16T00:21:15;99736.56;;;26.80
45701;BMP280;36277;32.852;-116.998;2022-10-16T00:23:42;99735.72;;;26.79
45701;BMP280;36277;32.852;-116.998;2022-10-16T00:26:12;99734.66;;;26.80
45701;BMP280;36277;32.852;-116.998;2022-10-16T00:28:39;99736.56;;;26.80
45701;BMP280;36277;32.852;-116.998;2022-10-16T00:31:08;99747.19;;;26.83
45701;BMP280;36277;32.852;-116.998;2022-10-16T00:33:36;99783.81;;;26.85
45701;BMP280;36277;32.852;-116.998;2022-10-16T00:36:04;99804.28;;;26.84
45701;BMP280;36277;32.852;-116.998;2022-10-16T00:38:31;99799.59;;;26.84
45701;BMP280;36277;32.852;-116.998;2022-10-16T00:40:57;99788.53;;;26.84
45701;BMP280;36277;32.852;-116.998;2022-10-16T00:43:40;99796.16;;;26.89
45701;BMP280;36277;32.852;-116.998;2022-10-16T00:46:39;99778.53;;;26.83
45701;BMP280;36277;32.852;-116.998;2022-10-16T00:49:15;99755.06;;;26.86
45701;BMP280;36277;32.852;-116.998;2022-10-16T00:51:48;99735.69;;;26.86
45701;BMP280;36277;32.852;-116.998;2022-10-16T00:54:24;99742.28;;;26.85
45701;BMP280;36277;32.852;-116.998;2022-10-16T00:56:53;99755.31;;;26.84
45701;BMP280;36277;32.852;-116.998;2022-10-16T01:01:53;99771.69;;;26.86
45701;BMP280;36277;32.852;-116.998;2022-10-16T01:04:21;99772.53;;;26.86
45701;BMP280;36277;32.852;-116.998;2022-10-16T01:10:22;99771.47;;;26.87
45701;BMP280;36277;32.852;-116.998;2022-10-16T01:15:14;99754.44;;;26.84
45701;BMP280;36277;32.852;-116.998;2022-10-16T01:18:21;99732.31;;;26.77
45701;BMP280;36277;32.852;-116.998;2022-10-16T01:21:26;99722.72;;;26.80
45701;BMP280;36277;32.852;-116.998;2022-10-16T01:24:26;99738.88;;;26.83
45701;BMP280;36277;32.852;-116.998;2022-10-16T01:32:32;99781.28;;;26.83
45701;BMP280;36277;32.852;-116.998;2022-10-16T01:35:05;99789.16;;;26.80
45701;BMP280;36277;32.852;-116.998;2022-10-16T01:37:45;99798.09;;;26.82
45701;BMP280;36277;32.852;-116.998;2022-10-16T01:40:15;99794.69;;;26.80
45701;BMP280;36277;32.852;-116.998;2022-10-16T01:42:48;99797.28;;;26.81
45701;BMP280;36277;32.852;-116.998;2022-10-16T01:45:19;99803.00;;;26.80
45701;BMP280;36277;32.852;-116.998;2022-10-16T01:47:48;99803.00;;;26.80
45701;BMP280;36277;32.852;-116.998;2022-10-16T01:50:16;99812.38;;;26.79
45701;BMP280;36277;32.852;-116.998;2022-10-16T01:52:46;99833.28;;;26.81
45701;BMP280;36277;32.852;-116.998;2022-10-16T01:55:18;99843.47;;;26.81
45701;BMP280;36277;32.852;-116.998;2022-10-16T01:57:49;99853.50;;;26.82
45701;BMP280;36277;32.852;-116.998;2022-10-16T02:00:19;99855.41;;;26.81
45701;BMP280;36277;32.852;-116.998;2022-10-16T02:02:50;99864.56;;;26.82
45701;BMP280;36277;32.852;-116.998;2022-10-16T02:05:34;99866.25;;;26.83
45701;BMP280;36277;32.852;-116.998;2022-10-16T02:08:03;99867.75;;;26.79
45701;BMP280;36277;32.852;-116.998;2022-10-16T02:10:30;99868.63;;;26.79
45701;BMP280;36277;32.852;-116.998;2022-10-16T02:13:13;99870.97;;;26.82
45701;BMP280;36277;32.852;-116.998;2022-10-16T02:15:41;99869.47;;;26.80
45701;BMP280;36277;32.852;-116.998;2022-10-16T02:18:09;99864.56;;;26.82
45701;BMP280;36277;32.852;-116.998;2022-10-16T02:26:09;99854.56;;;26.81
45701;BMP280;36277;32.852;-116.998;2022-10-16T02:28:46;99852.84;;;26.80
45701;BMP280;36277;32.852;-116.998;2022-10-16T02:31:18;99858.19;;;26.81
45701;BMP280;36277;32.852;-116.998;2022-10-16T02:33:46;99850.94;;;26.80
45701;BMP280;36277;32.852;-116.998;2022-10-16T02:36:13;99849.00;;;26.81
45701;BMP280;36277;32.852;-116.998;2022-10-16T02:38:40;99837.94;;;26.81
45701;BMP280;36277;32.852;-116.998;2022-10-16T02:41:06;99830.69;;;26.80
45701;BMP280;36277;32.852;-116.998;2022-10-16T02:43:33;99829.88;;;26.79
45701;BMP280;36277;32.852;-116.998;2022-10-16T02:45:59;99810.47;;;26.79
45701;BMP280;36277;32.852;-116.998;2022-10-16T02:48:26;99798.53;;;26.79
45701;BMP280;36277;32.852;-116.998;2022-10-16T02:50:52;99803.88;;;26.80
45701;BMP280;36277;32.852;-116.998;2022-10-16T02:53:18;99799.59;;;26.78
45701;BMP280;36277;32.852;-116.998;2022-10-16T02:55:44;99813.03;;;26.81
45701;BMP280;36277;32.852;-116.998;2022-10-16T02:58:11;99834.13;;;26.75
45701;BMP280;36277;32.852;-116.998;2022-10-16T03:00:37;99826.69;;;26.76
45701;BMP280;36277;32.852;-116.998;2022-10-16T03:03:03;99810.09;;;26.76
45701;BMP280;36277;32.852;-116.998;2022-10-16T03:05:29;99794.31;;;26.76
45701;BMP280;36277;32.852;-116.998;2022-10-16T03:07:55;99800.91;;;26.75
45701;BMP280;36277;32.852;-116.998;2022-10-16T03:10:22;99799.84;;;26.76
45701;BMP280;36277;32.852;-116.998;2022-10-16T03:12:48;99808.59;;;26.73
45701;BMP280;36277;32.852;-116.998;2022-10-16T03:15:16;99804.53;;;26.76
45701;BMP280;36277;32.852;-116.998;2022-10-16T03:17:43;99810.50;;;26.73
45701;BMP280;36277;32.852;-116.998;2022-10-16T03:20:10;99808.38;;;26.68
45701;BMP280;36277;32.852;-116.998;2022-10-16T03:22:36;99818.63;;;26.68
45701;BMP280;36277;32.852;-116.998;2022-10-16T03:25:02;99829.69;;;26.68
45701;BMP280;36277;32.852;-116.998;2022-10-16T03:27:29;99831.59;;;26.67
45701;BMP280;36277;32.852;-116.998;2022-10-16T03:29:55;99840.97;;;26.66
45701;BMP280;36277;32.852;-116.998;2022-10-16T03:32:21;99829.47;;;26.69
45701;BMP280;36277;32.852;-116.998;2022-10-16T03:34:47;99824.34;;;26.66
45701;BMP280;36277;32.852;-116.998;2022-10-16T03:37:13;99828.19;;;26.65
45701;BMP280;36277;32.852;-116.998;2022-10-16T03:39:40;99835.66;;;26.65
45701;BMP280;36277;32.852;-116.998;2022-10-16T03:42:06;99831.59;;;26.67
45701;BMP280;36277;32.852;-116.998;2022-10-16T03:44:32;99844.38;;;26.68
45701;BMP280;36277;32.852;-116.998;2022-10-16T03:46:58;99843.56;;;26.61
45701;BMP280;36277;32.852;-116.998;2022-10-16T03:49:25;99848.03;;;26.62
45701;BMP280;36277;32.852;-116.998;2022-10-16T03:51:51;99853.97;;;26.66
45701;BMP280;36277;32.852;-116.998;2022-10-16T03:54:17;99852.91;;;26.67
45701;BMP280;36277;32.852;-116.998;2022-10-16T03:56:43;99845.88;;;26.64
45701;BMP280;36277;32.852;-116.998;2022-10-16T03:59:09;99845.25;;;26.69
45701;BMP280;36277;32.852;-116.998;2022-10-16T04:01:36;99855.03;;;26.65
45701;BMP280;36277;32.852;-116.998;2022-10-16T04:04:02;99854.19;;;26.71
45701;BMP280;36277;32.852;-116.998;2022-10-16T04:06:28;99854.81;;;26.73
45701;BMP280;36277;32.852;-116.998;2022-10-16T04:08:54;99858.22;;;26.75
45701;BMP280;36277;32.852;-116.998;2022-10-16T04:11:21;99862.22;;;26.79
45701;BMP280;36277;32.852;-116.998;2022-10-16T04:13:47;99862.88;;;26.81
45701;BMP280;36277;32.852;-116.998;2022-10-16T04:16:14;99864.78;;;26.80
45701;BMP280;36277;32.852;-116.998;2022-10-16T04:18:40;99852.84;;;26.80
45701;BMP280;36277;32.852;-116.998;2022-10-16T04:21:06;99869.47;;;26.80
45701;BMP280;36277;32.852;-116.998;2022-10-16T04:23:33;99878.41;;;26.82
45701;BMP280;36277;32.852;-116.998;2022-10-16T04:26:00;99890.34;;;26.82
45701;BMP280;36277;32.852;-116.998;2022-10-16T04:28:29;99896.72;;;26.83
45701;BMP280;36277;32.852;-116.998;2022-10-16T04:30:58;99897.59;;;26.77
45701;BMP280;36277;32.852;-116.998;2022-10-16T04:33:24;99900.34;;;26.77
45701;BMP280;36277;32.852;-116.998;2022-10-16T04:36:01;99908.22;;;26.80
45701;BMP280;36277;32.852;-116.998;2022-10-16T04:38:28;99918.94;;;26.70
45701;BMP280;36277;32.852;-116.998;2022-10-16T04:40:55;99922.50;;;26.77
45701;BMP280;36277;32.852;-116.998;2022-10-16T04:43:22;99921.91;;;26.75
45701;BMP280;36277;32.852;-116.998;2022-10-16T04:45:48;99914.66;;;26.74
45701;BMP280;36277;32.852;-116.998;2022-10-16T04:48:16;99910.41;;;26.39
45701;BMP280;36277;32.852;-116.998;2022-10-16T04:50:43;99917.63;;;25.95
45701;BMP280;36277;32.852;-116.998;2022-10-16T04:53:09;99927.34;;;25.78
45701;BMP280;36277;32.852;-116.998;2022-10-16T04:55:35;99930.22;;;25.44
45701;BMP280;36277;32.852;-116.998;2022-10-16T04:58:02;99947.16;;;25.22
45701;BMP280;36277;32.852;-116.998;2022-10-16T05:00:29;99948.09;;;25.08
45701;BMP280;36277;32.852;-116.998;2022-10-16T05:02:55;99949.09;;;24.94
45701;BMP280;36277;32.852;-116.998;2022-10-16T05:05:22;99935.59;;;24.78
45701;BMP280;36277;32.852;-116.998;2022-10-16T05:07:49;99941.28;;;24.70
45701;BMP280;36277;32.852;-116.998;2022-10-16T05:10:18;99949.56;;;24.70
45701;BMP280;36277;32.852;-116.998;2022-10-16T05:12:44;99947.94;;;24.82
45701;BMP280;36277;32.852;-116.998;2022-10-16T05:15:10;99948.84;;;24.89
45701;BMP280;36277;32.852;-116.998;2022-10-16T05:17:37;99953.38;;;25.03
45701;BMP280;36277;32.852;-116.998;2022-10-16T05:20:04;99950.25;;;24.78
45701;BMP280;36277;32.852;-116.998;2022-10-16T05:22:30;99956.44;;;24.53
45701;BMP280;36277;32.852;-116.998;2022-10-16T05:24:56;99958.28;;;24.25
45701;BMP280;36277;32.852;-116.998;2022-10-16T05:27:23;99962.63;;;24.13
45701;BMP280;36277;32.852;-116.998;2022-10-16T05:29:49;99969.72;;;24.22
45701;BMP280;36277;32.852;-116.998;2022-10-16T05:32:17;99962.22;;;24.37
45701;BMP280;36277;32.852;-116.998;2022-10-16T05:34:44;99956.00;;;24.49
45701;BMP280;36277;32.852;-116.998;2022-10-16T05:37:11;99955.22;;;24.62
45701;BMP280;36277;32.852;-116.998;2022-10-16T05:39:38;99948.50;;;24.71
45701;BMP280;36277;32.852;-116.998;2022-10-16T05:42:05;99943.88;;;24.78
45701;BMP280;36277;32.852;-116.998;2022-10-16T05:44:31;99951.34;;;24.84
45701;BMP280;36277;32.852;-116.998;2022-10-16T05:46:58;99967.09;;;24.90
45701;BMP280;36277;32.852;-116.998;2022-10-16T05:49:24;99971.16;;;24.94
45701;BMP280;36277;32.852;-116.998;2022-10-16T05:51:50;99974.16;;;24.99
45701;BMP280;36277;32.852;-116.998;2022-10-16T05:54:17;99967.00;;;24.77
45701;BMP280;36277;32.852;-116.998;2022-10-16T05:56:43;99963.13;;;24.44
45701;BMP280;36277;32.852;-116.998;2022-10-16T05:59:09;99956.06;;;24.14
45701;BMP280;36277;32.852;-116.998;2022-10-16T06:01:35;99967.69;;;24.10
45701;BMP280;36277;32.852;-116.998;2022-10-16T06:04:02;99968.72;;;24.09
45701;BMP280;36277;32.852;-116.998;2022-10-16T06:06:29;99964.44;;;24.27
45701;BMP280;36277;32.852;-116.998;2022-10-16T06:08:57;99947.16;;;24.39
45701;BMP280;36277;32.852;-116.998;2022-10-16T06:11:26;99952.34;;;24.49
45701;BMP280;36277;32.852;-116.998;2022-10-16T06:13:55;99966.00;;;24.57
45701;BMP280;36277;32.852;-116.998;2022-10-16T06:16:23;99956.94;;;24.63
45701;BMP280;36277;32.852;-116.998;2022-10-16T06:18:53;99944.88;;;24.70
45701;BMP280;36277;32.852;-116.998;2022-10-16T06:21:23;99950.00;;;24.73
45701;BMP280;36277;32.852;-116.998;2022-10-16T06:23:53;99946.84;;;24.76
45701;BMP280;36277;32.852;-116.998;2022-10-16T06:26:22;99949.84;;;24.81
45701;BMP280;36277;32.852;-116.998;2022-10-16T06:28:49;99935.84;;;24.83
45701;BMP280;36277;32.852;-116.998;2022-10-16T06:31:16;99942.66;;;24.87
45701;BMP280;36277;32.852;-116.998;2022-10-16T06:33:42;99951.59;;;24.89
45701;BMP280;36277;32.852;-116.998;2022-10-16T06:36:11;99951.84;;;24.94
45701;BMP280;36277;32.852;-116.998;2022-10-16T06:38:38;99939.94;;;24.93
45701;BMP280;36277;32.852;-116.998;2022-10-16T06:41:06;99941.44;;;24.96
45701;BMP280;36277;32.852;-116.998;2022-10-16T06:43:32;99944.84;;;24.98
45701;BMP280;36277;32.852;-116.998;2022-10-16T06:46:01;99943.59;;;25.00
45701;BMP280;36277;32.852;-116.998;2022-10-16T06:48:29;99949.53;;;25.04
45701;BMP280;36277;32.852;-116.998;2022-10-16T06:51:02;99943.63;;;25.07
45701;BMP280;36277;32.852;-116.998;2022-10-16T06:53:32;99941.72;;;25.07
45701;BMP280;36277;32.852;-116.998;2022-10-16T06:56:05;99943.63;;;25.07
45701;BMP280;36277;32.852;-116.998;2022-10-16T06:58:32;99937.03;;;25.08
45701;BMP280;36277;32.852;-116.998;2022-10-16T07:00:58;99932.16;;;25.10
45701;BMP280;36277;32.852;-116.998;2022-10-16T07:03:24;99930.06;;;25.12
45701;BMP280;36277;32.852;-116.998;2022-10-16T07:05:50;99924.28;;;25.07
45701;BMP280;36277;32.852;-116.998;2022-10-16T07:08:16;99924.75;;;24.76
45701;BMP280;36277;32.852;-116.998;2022-10-16T07:10:43;99930.22;;;24.42
45701;BMP280;36277;32.852;-116.998;2022-10-16T07:13:09;99925.75;;;24.14
45701;BMP280;36277;32.852;-116.998;2022-10-16T07:15:38;99927.19;;;24.10
45701;BMP280;36277;32.852;-116.998;2022-10-16T07:18:05;99928.59;;;24.27
45701;BMP280;36277;32.852;-116.998;2022-10-16T07:20:31;99922.34;;;24.39
45701;BMP280;36277;32.852;-116.998;2022-10-16T07:22:57;99922.22;;;24.47
45701;BMP280;36277;32.852;-116.998;2022-10-16T07:25:23;99925.03;;;24.54
45701;BMP280;36277;32.852;-116.998;2022-10-16T07:27:49;99920.59;;;24.59
45701;BMP280;36277;32.852;-116.998;2022-10-16T07:30:16;99916.38;;;24.63
45701;BMP280;36277;32.852;-116.998;2022-10-16T07:32:42;99909.63;;;24.66
45701;BMP280;36277;32.852;-116.998;2022-10-16T07:35:08;99914.53;;;24.70
45701;BMP280;36277;32.852;-116.998;2022-10-16T07:37:34;99920.91;;;24.71
45701;BMP280;36277;32.852;-116.998;2022-10-16T07:40:01;99915.84;;;24.74
45701;BMP280;36277;32.852;-116.998;2022-10-16T07:42:27;99905.63;;;24.75
45701;BMP280;36277;32.852;-116.998;2022-10-16T07:44:54;99914.56;;;24.77
45701;BMP280;36277;32.852;-116.998;2022-10-16T07:47:20;99920.53;;;24.80
45701;BMP280;36277;32.852;-116.998;2022-10-16T07:49:46;99930.31;;;24.83
45701;BMP280;36277;32.852;-116.998;2022-10-16T07:52:12;99929.25;;;24.84
45701;BMP280;36277;32.852;-116.998;2022-10-16T07:54:38;99926.09;;;24.87
45701;BMP280;36277;32.852;-116.998;2022-10-16T07:57:05;99930.34;;;24.89
45701;BMP280;36277;32.852;-116.998;2022-10-16T07:59:31;99929.09;;;24.92
45701;BMP280;36277;32.852;-116.998;2022-10-16T08:01:57;99936.34;;;24.93
45701;BMP280;36277;32.852;-116.998;2022-10-16T08:04:23;99938.88;;;24.94
45701;BMP280;36277;32.852;-116.998;2022-10-16T08:06:49;99937.63;;;24.97
45701;BMP280;36277;32.852;-116.998;2022-10-16T08:09:16;99938.47;;;24.97
45701;BMP280;36277;32.852;-116.998;2022-10-16T08:11:42;99947.41;;;24.99
45701;BMP280;36277;32.852;-116.998;2022-10-16T08:14:08;99951.00;;;25.00
45701;BMP280;36277;32.852;-116.998;2022-10-16T08:16:34;99949.13;;;25.00
45701;BMP280;36277;32.852;-116.998;2022-10-16T08:19:00;99945.31;;;25.01
45701;BMP280;36277;32.852;-116.998;2022-10-16T08:21:27;99956.13;;;25.03
45701;BMP280;36277;32.852;-116.998;2022-10-16T08:23:53;99950.59;;;25.03
45701;BMP280;36277;32.852;-116.998;2022-10-16T08:26:20;99946.13;;;25.02
45701;BMP280;36277;32.852;-116.998;2022-10-16T08:28:50;99955.94;;;25.04
45701;BMP280;36277;32.852;-116.998;2022-10-16T08:31:17;99956.13;;;25.03
45701;BMP280;36277;32.852;-116.998;2022-10-16T08:33:44;99958.69;;;25.04
45701;BMP280;36277;32.852;-116.998;2022-10-16T08:36:13;99960.59;;;25.04
45701;BMP280;36277;32.852;-116.998;2022-10-16T08:38:39;99959.75;;;25.03
45701;BMP280;36277;32.852;-116.998;2022-10-16T08:43:58;99961.06;;;25.07
45701;BMP280;36277;32.852;-116.998;2022-10-16T08:46:33;99960.41;;;25.05
45701;BMP280;36277;32.852;-116.998;2022-10-16T08:49:09;99960.19;;;25.07
45701;BMP280;36277;32.852;-116.998;2022-10-16T08:51:37;99960.19;;;25.07
45701;BMP280;36277;32.852;-116.998;2022-10-16T08:54:46;99962.94;;;25.07
45701;BMP280;36277;32.852;-116.998;2022-10-16T08:57:11;99972.94;;;25.08
45701;BMP280;36277;32.852;-116.998;2022-10-16T08:59:38;99969.53;;;25.06
45701;BMP280;36277;32.852;-116.998;2022-10-16T09:02:33;99970.00;;;25.09
45701;BMP280;36277;32.852;-116.998;2022-10-16T09:05:21;99969.47;;;24.93
45701;BMP280;36277;32.852;-116.998;2022-10-16T09:11:11;99981.63;;;24.71
45701;BMP280;36277;32.852;-116.998;2022-10-16T09:16:19;99977.19;;;24.49
45701;BMP280;36277;32.852;-116.998;2022-10-16T09:21:25;99973.50;;;24.63
45701;BMP280;36277;32.852;-116.998;2022-10-16T09:23:54;99967.38;;;24.67
45701;BMP280;36277;32.852;-116.998;2022-10-16T09:26:23;99961.66;;;24.69
45701;BMP280;36277;32.852;-116.998;2022-10-16T09:28:52;99957.22;;;24.74
45701;BMP280;36277;32.852;-116.998;2022-10-16T09:31:21;99952.38;;;24.76
45701;BMP280;36277;32.852;-116.998;2022-10-16T09:33:59;99960.91;;;24.81
45701;BMP280;36277;32.852;-116.998;2022-10-16T09:36:27;99961.09;;;24.80
45701;BMP280;36277;32.852;-116.998;2022-10-16T09:39:06;99965.81;;;24.86
45701;BMP280;36277;32.852;-116.998;2022-10-16T09:41:39;99956.88;;;24.84
45701;BMP280;36277;32.852;-116.998;2022-10-16T09:47:05;99955.41;;;24.88
45701;BMP280;36277;32.852;-116.998;2022-10-16T09:49:31;99955.41;;;24.88
45701;BMP280;36277;32.852;-116.998;2022-10-16T09:52:24;99951.59;;;24.89
45701;BMP280;36277;32.852;-116.998;2022-10-16T09:54:57;99950.53;;;24.90
45701;BMP280;36277;32.852;-116.998;2022-10-16T09:57:24;99949.50;;;24.91
45701;BMP280;36277;32.852;-116.998;2022-10-16T09:59:53;99944.63;;;24.93
45701;BMP280;36277;32.852;-116.998;2022-10-16T10:02:49;99945.66;;;24.92
45701;BMP280;36277;32.852;-116.998;2022-10-16T10:05:24;99942.50;;;24.95
45701;BMP280;36277;32.852;-116.998;2022-10-16T10:07:59;99941.44;;;24.96
45701;BMP280;36277;32.852;-116.998;2022-10-16T10:10:30;99943.56;;;24.94
45701;BMP280;36277;32.852;-116.998;2022-10-16T10:12:57;99950.78;;;24.95
45701;BMP280;36277;32.852;-116.998;2022-10-16T10:15:24;99963.53;;;24.96
45701;BMP280;36277;32.852;-116.998;2022-10-16T10:17:54;99953.34;;;24.96
45701;BMP280;36277;32.852;-116.998;2022-10-16T10:20:25;99943.78;;;24.99
45701;BMP280;36277;32.852;-116.998;2022-10-16T10:22:53;99948.69;;;24.97
45701;BMP280;36277;32.852;-116.998;2022-10-16T10:25:53;99944.84;;;24.98
45701;BMP280;36277;32.852;-116.998;2022-10-16T10:34:49;99940.81;;;24.94
45701;BMP280;36277;32.852;-116.998;2022-10-16T10:39:56;99940.41;;;24.97
45701;BMP280;36277;32.852;-116.998;2022-10-16T10:50:45;99943.78;;;24.99
45701;BMP280;36277;32.852;-116.998;2022-10-16T10:53:36;99947.69;;;24.77
45701;BMP280;36277;32.852;-116.998;2022-10-16T10:59:14;99950.16;;;23.96
45701;BMP280;36277;32.852;-116.998;2022-10-16T11:01:54;99947.41;;;23.96
45701;BMP280;36277;32.852;-116.998;2022-10-16T11:04:41;99943.28;;;24.07
45701;BMP280;36277;32.852;-116.998;2022-10-16T11:07:28;99954.41;;;24.19
45701;BMP280;36277;32.852;-116.998;2022-10-16T11:10:15;99945.81;;;24.29
45701;BMP280;36277;32.852;-116.998;2022-10-16T11:12:49;99957.09;;;24.34
45701;BMP280;36277;32.852;-116.998;2022-10-16T11:15:23;99964.09;;;24.36
45701;BMP280;36277;32.852;-116.998;2022-10-16T11:18:15;99955.03;;;24.42
45701;BMP280;36277;32.852;-116.998;2022-10-16T11:23:37;99969.56;;;24.51
45701;BMP280;36277;32.852;-116.998;2022-10-16T11:26:14;99971.28;;;24.52
45701;BMP280;36277;32.852;-116.998;2022-10-16T11:28:53;99974.69;;;24.54
45701;BMP280;36277;32.852;-116.998;2022-10-16T11:31:39;99978.97;;;24.56
45701;BMP280;36277;32.852;-116.998;2022-10-16T11:37:08;99993.44;;;24.58
45701;BMP280;36277;32.852;-116.998;2022-10-16T11:39:38;99987.03;;;24.58
45701;BMP280;36277;32.852;-116.998;2022-10-16T11:42:10;99982.81;;;24.62
45701;BMP280;36277;32.852;-116.998;2022-10-16T11:45:07;99985.19;;;24.65
45701;BMP280;36277;32.852;-116.998;2022-10-16T11:47:48;99988.59;;;24.67
45701;BMP280;36277;32.852;-116.998;2022-10-16T11:55:43;99989.44;;;24.67
45701;BMP280;36277;32.852;-116.998;2022-10-16T12:00:59;99995.84;;;24.68
45701;BMP280;36277;32.852;-116.998;2022-10-16T12:06:34;99983.34;;;24.72
45701;BMP280;36277;32.852;-116.998;2022-10-16T12:09:02;99985.00;;;24.73
45701;BMP280;36277;32.852;-116.998;2022-10-16T12:14:17;99990.59;;;24.79
45701;BMP280;36277;32.852;-116.998;2022-10-16T12:16:57;99990.13;;;24.76
45701;BMP280;36277;32.852;-116.998;2022-10-16T12:19:26;99992.91;;;24.76
45701;BMP280;36277;32.852;-116.998;2022-10-16T12:21:56;99997.38;;;24.77
45701;BMP280;36277;32.852;-116.998;2022-10-16T12:24:33;99997.38;;;24.77
45701;BMP280;36277;32.852;-116.998;2022-10-16T12:27:00;100002.69;;;24.78
45701;BMP280;36277;32.852;-116.998;2022-10-16T12:31:56;100008.00;;;24.80
45701;BMP280;36277;32.852;-116.998;2022-10-16T12:34:39;100010.19;;;24.84
45701;BMP280;36277;32.852;-116.998;2022-10-16T12:37:27;100016.09;;;24.81
45701;BMP280;36277;32.852;-116.998;2022-10-16T12:39:55;100011.81;;;24.79
45701;BMP280;36277;32.852;-116.998;2022-10-16T12:44:56;100002.31;;;24.81
45701;BMP280;36277;32.852;-116.998;2022-10-16T12:49:58;100005.91;;;24.82
45701;BMP280;36277;32.852;-116.998;2022-10-16T12:55:00;100015.88;;;24.83
45701;BMP280;36277;32.852;-116.998;2022-10-16T13:09:12;100011.63;;;24.80
45701;BMP280;36277;32.852;-116.998;2022-10-16T13:20:18;100023.78;;;24.86
45701;BMP280;36277;32.852;-116.998;2022-10-16T13:30:29;100032.72;;;24.88
45701;BMP280;36277;32.852;-116.998;2022-10-16T13:35:28;100036.13;;;24.90
45701;BMP280;36277;32.852;-116.998;2022-10-16T13:38:11;100029.34;;;24.92
45701;BMP280;36277;32.852;-116.998;2022-10-16T13:40:51;100030.22;;;24.93
45701;BMP280;36277;32.852;-116.998;2022-10-16T13:43:21;100036.78;;;24.92
45701;BMP280;36277;32.852;-116.998;2022-10-16T13:45:58;100037.44;;;24.94
45701;BMP280;36277;32.852;-116.998;2022-10-16T13:48:25;100045.91;;;24.92
45701;BMP280;36277;32.852;-116.998;2022-10-16T13:51:14;100039.59;;;24.98
45701;BMP280;36277;32.852;-116.998;2022-10-16T13:53:41;100046.78;;;24.93
45701;BMP280;36277;32.852;-116.998;2022-10-16T13:56:13;100042.56;;;24.97
45701;BMP280;36277;32.852;-116.998;2022-10-16T13:58:39;100046.78;;;24.93
45701;BMP280;36277;32.852;-116.998;2022-10-16T14:01:18;100047.00;;;24.98
45701;BMP280;36277;32.852;-116.998;2022-10-16T14:03:47;100047.44;;;24.95
45701;BMP280;36277;32.852;-116.998;2022-10-16T14:06:19;100054.44;;;24.97
45701;BMP280;36277;32.852;-116.998;2022-10-16T14:09:08;100059.13;;;24.97
45701;BMP280;36277;32.852;-116.998;2022-10-16T14:11:46;100065.47;;;24.97
45701;BMP280;36277;32.852;-116.998;2022-10-16T14:14:15;100067.59;;;24.95
45701;BMP280;36277;32.852;-116.998;2022-10-16T14:16:42;100066.31;;;24.98
45701;BMP280;36277;32.852;-116.998;2022-10-16T14:19:29;100082.50;;;25.01
45701;BMP280;36277;32.852;-116.998;2022-10-16T14:22:14;100084.16;;;24.95
45701;BMP280;36277;32.852;-116.998;2022-10-16T14:24:42;100077.19;;;24.72
45701;BMP280;36277;32.852;-116.998;2022-10-16T14:27:41;100078.84;;;24.31
45701;BMP280;36277;32.852;-116.998;2022-10-16T14:30:21;100087.44;;;24.01
45701;BMP280;36277;32.852;-116.998;2022-10-16T14:32:58;100096.50;;;23.80
45701;BMP280;36277;32.852;-116.998;2022-10-16T14:35:31;100096.19;;;23.46
45701;BMP280;36277;32.852;-116.998;2022-10-16T14:38:00;100103.63;;;23.46
45701;BMP280;36277;32.852;-116.998;2022-10-16T14:40:30;100109.31;;;23.59
45701;BMP280;36277;32.852;-116.998;2022-10-16T14:42:57;100113.50;;;23.69
45701;BMP280;36277;32.852;-116.998;2022-10-16T14:45:28;100113.03;;;23.80
45701;BMP280;36277;32.852;-116.998;2022-10-16T14:48:00;100124.63;;;23.90
45701;BMP280;36277;32.852;-116.998;2022-10-16T14:50:27;100122.03;;;23.89
45701;BMP280;36277;32.852;-116.998;2022-10-16T14:52:54;100124.25;;;23.64
45701;BMP280;36277;32.852;-116.998;2022-10-16T14:55:21;100122.53;;;23.34
45701;BMP280;36277;32.852;-116.998;2022-10-16T14:57:48;100126.50;;;23.17
45701;BMP280;36277;32.852;-116.998;2022-10-16T15:00:18;100133.53;;;23.20
45701;BMP280;36277;32.852;-116.998;2022-10-16T15:02:46;100140.75;;;23.35
45701;BMP280;36277;32.852;-116.998;2022-10-16T15:05:33;100143.03;;;23.46
45701;BMP280;36277;32.852;-116.998;2022-10-16T15:08:00;100156.53;;;23.56
45701;BMP280;36277;32.852;-116.998;2022-10-16T15:10:27;100155.22;;;23.66
45701;BMP280;36277;32.852;-116.998;2022-10-16T15:12:55;100151.50;;;23.74
45701;BMP280;36277;32.852;-116.998;2022-10-16T15:18:09;100157.41;;;23.85
45701;BMP280;36277;32.852;-116.998;2022-10-16T15:20:37;100153.69;;;23.93
45701;BMP280;36277;32.852;-116.998;2022-10-16T15:23:16;100161.19;;;23.99
45701;BMP280;36277;32.852;-116.998;2022-10-16T15:25:46;100155.31;;;24.02
45701;BMP280;36277;32.852;-116.998;2022-10-16T15:28:14;100168.50;;;24.06
45701;BMP280;36277;32.852;-116.998;2022-10-16T15:30:41;100167.91;;;24.11
45701;BMP280;36277;32.852;-116.998;2022-10-16T15:33:34;100170.28;;;24.13
45701;BMP280;36277;32.852;-116.998;2022-10-16T15:36:01;100179.44;;;24.14
45701;BMP280;36277;32.852;-116.998;2022-10-16T15:38:28;100186.06;;;24.19
45701;BMP280;36277;32.852;-116.998;2022-10-16T15:40:55;100177.41;;;24.22
45701;BMP280;36277;32.852;-116.998;2022-10-16T15:43:22;100187.19;;;24.25
45701;BMP280;36277;32.852;-116.998;2022-10-16T15:46:09;100173.91;;;24.28
45701;BMP280;36277;32.852;-116.998;2022-10-16T15:48:37;100181.50;;;24.26